Time;durP1;ratioP1;P1;durP2;ratioP2;P2;SDS_P1;SDS_P2;PMS_P1;PMS_P2;Temp;Humidity;BMP_temperature;BMP_pressure;BME280_temperature;BME280_humidity;BME280_pressure;Samples;Min_cycle;Max_cycle;Signal;HPM_P1;HPM_P2
2021/11/14 00:01:13;;;;;;;58.70;28.67;;;8.00;89.80;;;;;;4893155;29;20504;-42
2021/11/14 00:03:40;;;;;;;57.20;28.83;;;8.10;89.80;;;;;;4907832;29;21047;-42
2021/11/14 00:06:09;;;;;;;59.57;26.60;;;8.10;89.80;;;;;;4908562;29;20473;-42
2021/11/14 00:08:37;;;;;;;55.53;26.63;;;8.10;89.80;;;;;;4905765;29;21048;-42
2021/11/14 00:11:09;;;;;;;46.73;26.87;;;8.10;89.80;;;;;;4909790;29;20539;-42
2021/11/14 00:13:40;;;;;;;57.00;28.67;;;8.10;89.80;;;;;;4910048;29;20890;-42
2021/11/14 00:16:10;;;;;;;58.43;30.67;;;8.10;89.80;;;;;;4912467;29;20960;-42
2021/11/14 00:18:39;;;;;;;63.03;30.10;;;8.10;89.80;;;;;;4911855;29;20476;-43
2021/11/14 00:21:08;;;;;;;61.87;27.60;;;8.10;89.80;;;;;;4894459;29;20896;-42
2021/11/14 00:23:35;;;;;;;67.03;29.73;;;8.10;89.80;;;;;;4914495;29;20836;-42
2021/11/14 00:26:03;;;;;;;51.93;25.27;;;8.10;89.80;;;;;;4898462;29;20562;-42
2021/11/14 00:28:30;;;;;;;54.00;27.10;;;8.10;89.80;;;;;;4913158;29;20460;-42
2021/11/14 00:30:57;;;;;;;56.03;29.30;;;8.10;89.80;;;;;;4913242;29;20475;-42
2021/11/14 00:33:24;;;;;;;59.97;28.30;;;8.10;89.80;;;;;;4913533;29;20560;-42
2021/11/14 00:35:52;;;;;;;62.93;26.40;;;8.10;89.80;;;;;;4912546;29;20956;-42
2021/11/14 00:38:24;;;;;;;56.90;24.53;;;8.20;89.80;;;;;;4898625;29;20467;-42
2021/11/14 00:40:51;;;;;;;63.17;26.47;;;8.20;89.80;;;;;;4913650;29;20491;-42
2021/11/14 00:43:18;;;;;;;56.27;28.50;;;8.20;89.80;;;;;;4916018;29;20448;-42
2021/11/14 00:45:46;;;;;;;56.37;26.97;;;8.20;89.80;;;;;;4896761;29;20464;-42
2021/11/14 00:48:15;;;;;;;50.20;25.77;;;8.20;89.80;;;;;;4913387;29;20472;-43
2021/11/14 00:50:45;;;;;;;49.60;23.97;;;8.20;89.80;;;;;;4914457;29;20468;-42
2021/11/14 00:53:14;;;;;;;56.87;25.60;;;8.20;89.80;;;;;;4913967;29;20459;-42
2021/11/14 00:55:42;;;;;;;57.40;25.00;;;8.20;89.80;;;;;;4912709;29;20495;-43
2021/11/14 00:58:09;;;;;;;53.57;25.03;;;8.20;89.80;;;;;;4913749;29;20457;-42
2021/11/14 01:00:36;;;;;;;46.07;22.60;;;8.20;89.80;;;;;;4912660;29;20575;-42
2021/11/14 01:03:05;;;;;;;46.17;24.40;;;8.20;89.80;;;;;;4912085;29;20948;-42
2021/11/14 01:05:35;;;;;;;53.23;24.70;;;8.20;89.80;;;;;;4914215;29;20463;-42
2021/11/14 01:08:04;;;;;;;54.87;22.40;;;8.20;89.80;;;;;;4896377;29;20465;-42
2021/11/14 01:10:36;;;;;;;52.73;24.20;;;8.20;89.80;;;;;;4914078;29;21031;-42
2021/11/14 01:13:03;;;;;;;52.33;24.97;;;8.30;89.80;;;;;;4909818;29;20465;-42
2021/11/14 01:15:30;;;;;;;48.23;23.00;;;8.30;89.80;;;;;;4911459;29;20469;-42
2021/11/14 01:17:58;;;;;;;44.50;21.43;;;8.30;89.80;;;;;;4907595;29;20464;-42
2021/11/14 01:20:29;;;;;;;57.60;21.70;;;8.30;89.80;;;;;;4899688;29;20484;-42
2021/11/14 01:22:57;;;;;;;44.50;21.77;;;8.30;89.80;;;;;;4909106;29;20471;-42
2021/11/14 01:25:24;;;;;;;51.97;21.07;;;8.30;89.80;;;;;;4911818;29;20959;-42
2021/11/14 01:27:52;;;;;;;45.73;21.13;;;8.30;89.80;;;;;;4897976;29;20820;-42
2021/11/14 01:30:22;;;;;;;46.30;20.97;;;8.30;89.80;;;;;;4912920;29;20457;-42
2021/11/14 01:32:51;;;;;;;43.30;20.70;;;8.30;89.80;;;;;;4914312;29;20480;-42
2021/11/14 01:35:19;;;;;;;46.90;21.43;;;8.30;89.80;;;;;;4911137;29;20464;-42
2021/11/14 01:37:48;;;;;;;46.03;21.30;;;8.30;89.80;;;;;;4911245;29;20859;-42
2021/11/14 01:40:20;;;;;;;42.20;20.80;;;8.30;89.80;;;;;;4911852;29;20493;-42
2021/11/14 01:42:48;;;;;;;36.87;19.00;;;8.30;89.80;;;;;;4894651;29;20480;-42
2021/11/14 01:45:15;;;;;;;41.37;21.37;;;8.30;89.80;;;;;;4912199;29;20469;-42
2021/11/14 01:47:42;;;;;;;43.77;20.70;;;8.30;89.80;;;;;;4891946;29;21249;-42
2021/11/14 01:50:12;;;;;;;45.87;20.90;;;8.30;89.80;;;;;;4893689;29;20462;-42
2021/11/14 01:52:41;;;;;;;38.83;21.53;;;8.30;89.80;;;;;;4910296;29;20457;-42
2021/11/14 01:55:09;;;;;;;39.73;20.87;;;8.30;89.80;;;;;;4911964;29;20481;-42
2021/11/14 01:57:37;;;;;;;38.50;19.30;;;8.30;89.80;;;;;;4911483;29;20457;-42
2021/11/14 02:00:14;;;;;;;34.10;19.23;;;8.30;89.80;;;;;;4892497;29;20871;-42
2021/11/14 02:02:41;;;;;;;34.63;18.93;;;8.30;89.80;;;;;;4909428;29;20468;-42
2021/11/14 02:05:09;;;;;;;28.93;17.23;;;8.30;89.80;;;;;;4895429;29;20465;-42
2021/11/14 02:07:37;;;;;;;38.70;19.37;;;8.40;89.80;;;;;;4911721;29;20892;-42
2021/11/14 02:10:07;;;;;;;29.53;15.40;;;8.40;89.80;;;;;;4913162;29;20457;-42
2021/11/14 02:12:34;;;;;;;37.67;18.07;;;8.40;89.80;;;;;;4911117;29;20461;-42
2021/11/14 02:15:01;;;;;;;25.00;15.90;;;8.40;89.80;;;;;;4920954;29;20482;-42
2021/11/14 02:17:28;;;;;;;30.00;17.20;;;8.40;89.80;;;;;;4911695;29;20473;-42
2021/11/14 02:19:54;;;;;;;29.00;17.40;;;8.40;89.80;;;;;;4910957;29;20465;-42
2021/11/14 02:22:21;;;;;;;33.83;17.73;;;8.40;89.80;;;;;;4912218;29;20484;-42
2021/11/14 02:24:48;;;;;;;29.93;16.07;;;8.40;89.80;;;;;;4912371;29;20851;-42
2021/11/14 02:27:15;;;;;;;25.30;16.53;;;8.40;89.80;;;;;;4909823;29;20467;-42
2021/11/14 02:29:42;;;;;;;23.40;14.93;;;8.40;89.80;;;;;;4911697;29;20829;-42
2021/11/14 02:32:09;;;;;;;24.23;16.20;;;8.40;89.80;;;;;;4908564;29;20965;-42
2021/11/14 02:34:35;;;;;;;29.13;15.30;;;8.40;89.80;;;;;;4909930;29;20563;-42
2021/11/14 02:37:02;;;;;;;27.33;16.23;;;8.40;89.80;;;;;;4911301;29;20456;-42
2021/11/14 02:39:29;;;;;;;23.57;15.10;;;8.40;89.80;;;;;;4910252;29;20893;-43
2021/11/14 02:41:56;;;;;;;25.90;16.47;;;8.40;89.80;;;;;;4909370;29;20496;-43
2021/11/14 02:44:23;;;;;;;29.13;16.63;;;8.40;89.80;;;;;;4911028;29;20472;-42
2021/11/14 02:46:50;;;;;;;23.27;15.33;;;8.40;89.80;;;;;;4910184;29;20465;-42
2021/11/14 02:49:17;;;;;;;24.60;14.57;;;8.40;89.80;;;;;;4908146;29;20473;-42
2021/11/14 02:51:44;;;;;;;18.97;13.60;;;8.40;89.80;;;;;;4910959;29;20468;-42
2021/11/14 02:54:11;;;;;;;23.50;14.97;;;8.40;89.80;;;;;;4909171;29;20473;-42
2021/11/14 02:56:38;;;;;;;22.73;13.40;;;8.40;89.80;;;;;;4894640;29;20491;-42
2021/11/14 02:59:05;;;;;;;21.63;13.67;;;8.40;89.80;;;;;;4911310;29;20471;-42
2021/11/14 03:01:40;;;;;;;23.90;13.53;;;8.40;89.80;;;;;;4911731;29;20502;-42
2021/11/14 03:04:17;;;;;;;25.70;15.20;;;8.40;89.80;;;;;;4909000;29;20468;-42
2021/11/14 03:06:44;;;;;;;24.13;14.50;;;8.40;89.80;;;;;;4911548;29;20465;-42
2021/11/14 03:09:11;;;;;;;20.63;13.40;;;8.40;89.80;;;;;;4911186;29;20457;-42
2021/11/14 03:11:38;;;;;;;22.50;13.40;;;8.40;89.80;;;;;;4909545;29;20468;-42
2021/11/14 03:14:06;;;;;;;20.30;14.23;;;8.40;89.80;;;;;;4911348;29;20831;-42
2021/11/14 03:16:34;;;;;;;18.97;13.00;;;8.50;89.80;;;;;;4911061;29;20839;-42
2021/11/14 03:19:03;;;;;;;18.53;13.27;;;8.40;89.80;;;;;;4911540;29;20461;-42
2021/11/14 03:21:30;;;;;;;19.20;14.93;;;8.50;89.80;;;;;;4894588;29;20495;-42
2021/11/14 03:23:58;;;;;;;22.73;14.20;;;8.50;89.80;;;;;;4907690;29;20470;-42
2021/11/14 03:26:26;;;;;;;23.27;14.07;;;8.50;89.80;;;;;;4911523;29;20457;-42
2021/11/14 03:28:53;;;;;;;23.73;15.40;;;8.50;89.80;;;;;;4911348;29;20464;-42
2021/11/14 03:31:20;;;;;;;21.00;14.93;;;8.50;89.80;;;;;;4879349;29;20460;-42
2021/11/14 03:33:47;;;;;;;17.83;12.87;;;8.50;89.80;;;;;;4911420;29;20465;-42
2021/11/14 03:36:16;;;;;;;21.93;14.67;;;8.50;89.80;;;;;;4909390;29;20467;-42
2021/11/14 03:38:45;;;;;;;20.10;13.90;;;8.50;89.80;;;;;;4911733;29;21063;-42
2021/11/14 03:41:15;;;;;;;22.00;13.70;;;8.50;89.80;;;;;;4910393;29;20493;-42
2021/11/14 03:43:43;;;;;;;22.70;13.77;;;8.50;89.80;;;;;;4909744;29;20468;-42
2021/11/14 03:46:10;;;;;;;22.77;15.83;;;8.50;89.80;;;;;;4898421;29;20449;-42
2021/11/14 03:48:41;;;;;;;21.43;14.30;;;8.50;89.80;;;;;;4910927;29;20464;-42
2021/11/14 03:51:09;;;;;;;19.20;13.30;;;8.50;89.80;;;;;;4890409;29;20496;-42
2021/11/14 03:53:37;;;;;;;20.57;13.53;;;8.50;89.80;;;;;;4908861;29;21019;-42
2021/11/14 03:56:05;;;;;;;21.53;13.83;;;8.50;89.80;;;;;;4907945;29;20481;-43
2021/11/14 03:58:32;;;;;;;18.67;13.60;;;8.50;89.80;;;;;;4912934;29;20581;-44
2021/11/14 04:01:04;;;;;;;19.63;14.20;;;8.60;89.80;;;;;;4912183;29;20502;-42
2021/11/14 04:03:32;;;;;;;20.23;13.57;;;8.60;89.80;;;;;;4908723;29;20513;-42
2021/11/14 04:05:58;;;;;;;21.80;13.00;;;8.60;89.80;;;;;;4909173;29;20468;-42
2021/11/14 04:08:26;;;;;;;18.77;12.47;;;8.60;89.80;;;;;;4909129;29;20489;-42
2021/11/14 04:10:56;;;;;;;14.73;11.50;;;8.50;89.80;;;;;;4908124;29;20475;-42
2021/11/14 04:13:23;;;;;;;16.77;11.93;;;8.50;89.80;;;;;;4890224;29;20544;-42
2021/11/14 04:15:50;;;;;;;19.40;12.47;;;8.50;89.80;;;;;;4908028;29;20859;-42
2021/11/14 04:18:17;;;;;;;18.30;12.33;;;8.50;89.80;;;;;;4908906;29;20499;-42
2021/11/14 04:20:46;;;;;;;17.10;13.27;;;8.50;89.80;;;;;;4907924;29;20471;-42
2021/11/14 04:23:13;;;;;;;16.90;12.63;;;8.50;89.80;;;;;;4889671;29;20469;-42
2021/11/14 04:25:40;;;;;;;19.27;13.60;;;8.50;89.80;;;;;;4906082;29;20884;-42
2021/11/14 04:28:09;;;;;;;15.70;11.83;;;8.50;89.80;;;;;;4893385;29;20500;-42
2021/11/14 04:30:36;;;;;;;14.00;10.90;;;8.50;89.80;;;;;;4908033;29;20524;-42
2021/11/14 04:33:03;;;;;;;18.37;12.37;;;8.50;89.80;;;;;;4890854;29;20592;-42
2021/11/14 04:35:30;;;;;;;16.53;12.30;;;8.50;89.80;;;;;;4909921;29;20465;-42
2021/11/14 04:37:57;;;;;;;13.27;11.20;;;8.50;89.80;;;;;;4910453;29;20464;-42
2021/11/14 04:40:26;;;;;;;15.70;11.17;;;8.50;89.80;;;;;;4893768;29;20886;-42
2021/11/14 04:42:53;;;;;;;15.17;12.00;;;8.50;89.80;;;;;;4894438;29;20865;-42
2021/11/14 04:45:21;;;;;;;18.73;11.57;;;8.50;89.80;;;;;;4908713;29;20465;-42
2021/11/14 04:47:48;;;;;;;14.00;12.50;;;8.50;89.80;;;;;;4908830;29;20700;-42
2021/11/14 04:50:18;;;;;;;13.47;10.13;;;8.50;89.80;;;;;;4898281;29;20449;-42
2021/11/14 04:52:46;;;;;;;17.40;10.70;;;8.50;89.80;;;;;;4908391;29;20471;-42
2021/11/14 04:55:13;;;;;;;15.00;11.10;;;8.50;89.80;;;;;;4908750;29;20472;-43
2021/11/14 04:57:40;;;;;;;13.13;10.97;;;8.50;89.80;;;;;;4908668;29;20834;-42
2021/11/14 05:00:12;;;;;;;13.73;10.40;;;8.50;89.80;;;;;;4909830;29;20464;-42
2021/11/14 05:02:39;;;;;;;12.47;9.90;;;8.60;89.80;;;;;;4896603;29;20496;-42
2021/11/14 05:05:08;;;;;;;14.60;10.43;;;8.60;89.80;;;;;;4897152;29;20801;-42
2021/11/14 05:07:34;;;;;;;14.23;10.27;;;8.60;89.80;;;;;;4912378;29;20841;-42
2021/11/14 05:10:03;;;;;;;12.83;9.70;;;8.60;89.80;;;;;;4899396;29;20457;-42
2021/11/14 05:12:29;;;;;;;15.07;10.73;;;8.50;89.80;;;;;;4914393;29;20805;-42
2021/11/14 05:14:56;;;;;;;14.40;9.50;;;8.60;89.80;;;;;;4898405;29;20471;-42
2021/11/14 05:17:23;;;;;;;11.07;9.53;;;8.50;89.80;;;;;;4913931;29;20472;-42
2021/11/14 05:19:50;;;;;;;12.63;8.57;;;8.60;89.80;;;;;;4899923;29;20476;-42
2021/11/14 05:22:17;;;;;;;12.67;9.73;;;8.50;89.80;;;;;;4912284;29;20507;-42
2021/11/14 05:24:43;;;;;;;13.40;10.07;;;8.50;89.80;;;;;;4912589;29;20788;-42
2021/11/14 05:27:11;;;;;;;13.10;9.43;;;8.50;89.80;;;;;;4912808;29;20475;-42
2021/11/14 05:29:38;;;;;;;10.77;8.90;;;8.50;89.80;;;;;;4912774;29;20449;-42
2021/11/14 05:32:05;;;;;;;12.97;9.63;;;8.50;89.80;;;;;;4912765;29;20460;-42
2021/11/14 05:34:32;;;;;;;9.77;8.43;;;8.50;89.80;;;;;;4900595;29;20952;-42
2021/11/14 05:36:58;;;;;;;10.93;9.83;;;8.50;89.80;;;;;;4897286;29;20461;-42
2021/11/14 05:39:25;;;;;;;12.40;8.90;;;8.50;89.80;;;;;;4913161;29;20457;-42
2021/11/14 05:41:52;;;;;;;12.63;9.00;;;8.50;89.80;;;;;;4911462;29;21015;-42
2021/11/14 05:44:19;;;;;;;11.50;9.87;;;8.50;89.80;;;;;;4912768;29;20464;-43
2021/11/14 05:46:46;;;;;;;11.57;10.20;;;8.60;89.80;;;;;;4914007;29;20461;-43
2021/11/14 05:49:14;;;;;;;12.07;9.50;;;8.50;89.80;;;;;;4900729;29;20485;-43
2021/11/14 05:51:42;;;;;;;10.40;9.30;;;8.50;89.80;;;;;;4911132;29;20464;-42
2021/11/14 05:54:09;;;;;;;13.13;9.60;;;8.50;89.80;;;;;;4911412;29;20475;-42
2021/11/14 05:56:35;;;;;;;10.53;8.77;;;8.50;89.80;;;;;;4912206;29;20489;-42
2021/11/14 06:02:12;;;;;;;16.27;9.33;;;8.50;89.80;;;;;;4910672;29;20992;-42
2021/11/14 06:04:53;;;;;;;12.20;10.10;;;8.50;89.80;;;;;;4912959;29;20797;-42
2021/11/14 06:07:19;;;;;;;10.73;9.47;;;8.50;89.80;;;;;;4912916;29;20460;-42
2021/11/14 06:09:46;;;;;;;13.27;9.90;;;8.50;89.80;;;;;;4893277;29;20461;-42
2021/11/14 06:12:13;;;;;;;10.60;8.83;;;8.50;89.80;;;;;;4895709;29;20457;-42
2021/11/14 06:14:40;;;;;;;10.23;8.83;;;8.50;89.80;;;;;;4911263;29;20465;-42
2021/11/14 06:17:07;;;;;;;9.40;7.90;;;8.50;89.80;;;;;;4911071;29;20461;-42
2021/11/14 06:19:33;;;;;;;11.90;8.70;;;8.50;89.80;;;;;;4911576;29;20469;-42
2021/11/14 06:22:00;;;;;;;9.77;8.77;;;8.50;89.80;;;;;;4912445;29;20497;-42
2021/11/14 06:24:27;;;;;;;10.93;9.20;;;8.50;89.80;;;;;;4910023;29;20504;-42
2021/11/14 06:26:54;;;;;;;11.20;8.90;;;8.50;89.80;;;;;;4911595;29;20453;-42
2021/11/14 06:29:20;;;;;;;10.13;8.90;;;8.50;89.80;;;;;;4909548;29;20449;-42
2021/11/14 06:31:47;;;;;;;9.47;8.40;;;8.50;89.80;;;;;;4908208;29;20466;-42
2021/11/14 06:34:14;;;;;;;10.53;9.17;;;8.50;89.80;;;;;;4913039;29;20579;-42
2021/11/14 06:36:40;;;;;;;12.60;10.23;;;8.50;89.80;;;;;;4912965;29;20486;-42
2021/11/14 06:39:07;;;;;;;13.00;9.50;;;8.50;89.80;;;;;;4910962;29;20461;-42
2021/11/14 06:41:34;;;;;;;9.13;8.20;;;8.50;89.80;;;;;;4912068;29;20460;-42
2021/11/14 06:44:01;;;;;;;10.90;9.40;;;8.50;89.80;;;;;;4911344;29;20453;-42
2021/11/14 06:46:27;;;;;;;10.30;8.53;;;8.60;89.80;;;;;;4912462;29;20460;-41
2021/11/14 06:48:54;;;;;;;10.77;9.13;;;8.60;89.80;;;;;;4911560;29;20561;-42
2021/11/14 06:51:21;;;;;;;12.00;8.30;;;8.60;89.80;;;;;;4897633;29;20461;-42
2021/11/14 06:53:48;;;;;;;9.37;7.90;;;8.60;89.80;;;;;;4912214;29;20495;-42
2021/11/14 06:56:14;;;;;;;10.23;9.17;;;8.60;89.80;;;;;;4911582;29;21003;-42
2021/11/14 06:58:41;;;;;;;10.10;8.63;;;8.60;89.80;;;;;;4898074;29;20467;-41
2021/11/14 07:01:08;;;;;;;11.70;9.17;;;8.60;89.80;;;;;;4912268;29;20840;-41
2021/11/14 07:03:35;;;;;;;11.10;8.67;;;8.60;89.80;;;;;;4911344;29;20523;-42
2021/11/14 07:06:02;;;;;;;9.73;8.60;;;8.60;89.80;;;;;;4911735;29;20820;-42
2021/11/14 07:08:29;;;;;;;9.30;8.30;;;8.60;89.80;;;;;;4908853;29;20480;-42
2021/11/14 07:10:56;;;;;;;11.07;9.13;;;8.60;89.80;;;;;;4908076;29;20465;-42
2021/11/14 07:13:22;;;;;;;12.63;8.77;;;8.60;89.80;;;;;;4891928;29;20473;-42
2021/11/14 07:15:49;;;;;;;11.17;8.90;;;8.70;89.80;;;;;;4910620;29;20464;-42
2021/11/14 07:18:16;;;;;;;13.07;9.27;;;8.60;89.80;;;;;;4894062;29;20470;-42
2021/11/14 07:20:43;;;;;;;11.57;9.57;;;8.60;89.80;;;;;;4893072;29;20457;-42
2021/11/14 07:23:10;;;;;;;13.83;11.83;;;8.60;89.80;;;;;;4909537;29;20539;-41
2021/11/14 07:25:37;;;;;;;12.53;9.63;;;8.60;89.80;;;;;;4907260;29;20453;-42
2021/11/14 07:28:04;;;;;;;16.30;9.70;;;8.60;89.80;;;;;;4909610;29;20964;-42
2021/11/14 07:30:32;;;;;;;14.47;11.50;;;8.60;89.80;;;;;;4892918;29;20469;-42
2021/11/14 07:33:00;;;;;;;13.20;10.83;;;8.60;89.80;;;;;;4910823;29;20465;-42
2021/11/14 07:35:27;;;;;;;14.23;11.50;;;8.60;89.80;;;;;;4892856;29;20687;-42
2021/11/14 07:37:54;;;;;;;12.70;10.77;;;8.60;89.80;;;;;;4905838;29;20551;-42
2021/11/14 07:40:23;;;;;;;14.40;10.93;;;8.60;89.80;;;;;;4909402;29;20967;-42
2021/11/14 07:42:52;;;;;;;16.37;11.80;;;8.70;89.80;;;;;;4910236;29;20595;-42
2021/11/14 07:45:21;;;;;;;15.37;11.00;;;8.70;89.80;;;;;;4909979;29;20476;-42
2021/11/14 07:47:49;;;;;;;15.27;12.47;;;8.70;89.80;;;;;;4892708;29;20948;-42
2021/11/14 07:50:18;;;;;;;13.53;10.97;;;8.70;89.80;;;;;;4908533;29;20633;-42
2021/11/14 07:52:45;;;;;;;17.00;11.90;;;8.70;89.80;;;;;;4909017;29;20457;-42
2021/11/14 07:55:13;;;;;;;14.87;12.27;;;8.70;89.80;;;;;;4907536;29;20519;-42
2021/11/14 07:57:44;;;;;;;16.07;12.40;;;8.80;89.80;;;;;;4909907;29;21271;-42
2021/11/14 08:00:17;;;;;;;15.33;12.17;;;8.80;89.80;;;;;;4906535;29;20484;-42
2021/11/14 08:02:45;;;;;;;15.30;11.73;;;8.80;89.80;;;;;;4904507;29;20528;-42
2021/11/14 08:05:13;;;;;;;14.30;11.90;;;8.80;89.80;;;;;;4907486;29;20472;-42
2021/11/14 08:07:40;;;;;;;14.10;11.60;;;8.80;89.80;;;;;;4890034;29;20472;-42
2021/11/14 08:10:08;;;;;;;15.10;12.60;;;8.90;89.80;;;;;;4906919;29;20531;-42
2021/11/14 08:12:35;;;;;;;15.00;12.40;;;8.90;89.80;;;;;;4907509;29;20473;-43
2021/11/14 08:15:03;;;;;;;16.20;13.33;;;8.90;89.80;;;;;;4908474;29;20465;-43
2021/11/14 08:17:29;;;;;;;15.93;11.93;;;8.90;89.80;;;;;;4904747;29;20465;-43
2021/11/14 08:20:00;;;;;;;18.40;12.83;;;8.90;89.80;;;;;;4889227;29;20477;-43
2021/11/14 08:22:31;;;;;;;15.00;12.60;;;8.90;89.80;;;;;;4907609;29;20492;-43
2021/11/14 08:24:59;;;;;;;16.53;13.30;;;9.00;89.80;;;;;;4908385;29;20464;-42
2021/11/14 08:27:30;;;;;;;18.17;14.07;;;9.00;89.80;;;;;;4890352;29;20467;-42
2021/11/14 08:29:58;;;;;;;23.10;16.50;;;9.00;89.80;;;;;;4907233;29;21579;-42
2021/11/14 08:32:26;;;;;;;14.63;13.00;;;9.00;89.80;;;;;;4909235;29;20503;-43
2021/11/14 08:34:53;;;;;;;16.00;13.43;;;9.00;89.80;;;;;;4906115;29;20469;-42
2021/11/14 08:37:20;;;;;;;20.40;15.57;;;9.10;89.80;;;;;;4909544;29;20552;-42
2021/11/14 08:39:48;;;;;;;15.73;13.03;;;9.10;89.80;;;;;;4912697;29;20477;-42
2021/11/14 08:42:16;;;;;;;16.20;11.90;;;9.10;89.80;;;;;;4910059;29;20492;-42
2021/11/14 08:44:43;;;;;;;17.90;14.90;;;9.10;89.80;;;;;;4905801;29;21130;-42
2021/11/14 08:47:12;;;;;;;15.73;12.23;;;9.10;89.80;;;;;;4913842;29;20511;-42
2021/11/14 08:49:39;;;;;;;14.70;12.47;;;9.20;89.80;;;;;;4913988;29;20471;-42
2021/11/14 08:52:07;;;;;;;16.17;12.37;;;9.20;89.80;;;;;;4912680;29;20843;-42
2021/11/14 08:54:34;;;;;;;14.50;12.00;;;9.20;89.80;;;;;;4910649;29;20956;-42
2021/11/14 08:57:01;;;;;;;15.90;13.13;;;9.30;89.80;;;;;;4909899;29;20488;-42
2021/11/14 08:59:31;;;;;;;20.60;12.60;;;9.30;89.80;;;;;;4896356;29;20471;-42
2021/11/14 09:01:58;;;;;;;15.93;12.37;;;9.30;89.80;;;;;;4911571;29;21020;-42
2021/11/14 09:04:29;;;;;;;15.93;13.10;;;9.30;89.80;;;;;;4909965;29;20467;-42
2021/11/14 09:06:56;;;;;;;16.07;12.73;;;9.30;89.80;;;;;;4911635;29;20471;-42
2021/11/14 09:09:23;;;;;;;15.33;13.00;;;9.40;89.80;;;;;;4896347;29;20476;-42
2021/11/14 09:11:50;;;;;;;15.90;12.03;;;9.40;89.80;;;;;;4890163;29;20456;-42
2021/11/14 09:14:19;;;;;;;16.43;11.97;;;9.50;89.80;;;;;;4897791;29;20468;-42
2021/11/14 09:16:49;;;;;;;20.73;14.87;;;9.50;89.80;;;;;;4912907;29;20516;-42
2021/11/14 09:19:17;;;;;;;15.90;13.00;;;9.50;89.80;;;;;;4914267;29;20456;-42
2021/11/14 09:21:44;;;;;;;12.50;10.87;;;9.50;89.80;;;;;;4915817;29;20466;-42
2021/11/14 09:24:11;;;;;;;17.50;13.03;;;9.50;89.80;;;;;;4902268;29;20501;-42
2021/11/14 09:26:38;;;;;;;15.10;12.70;;;9.50;89.80;;;;;;4912529;29;20496;-42
2021/11/14 09:29:06;;;;;;;14.33;12.10;;;9.50;89.80;;;;;;4914160;29;20463;-42
2021/11/14 09:31:34;;;;;;;13.73;10.90;;;9.60;89.80;;;;;;4900806;29;20463;-42
2021/11/14 09:34:02;;;;;;;15.20;12.50;;;9.60;89.80;;;;;;4912389;29;20920;-42
2021/11/14 09:36:34;;;;;;;15.27;12.53;;;9.60;89.80;;;;;;4911982;29;20464;-42
2021/11/14 09:39:10;;;;;;;15.17;13.17;;;9.70;89.80;;;;;;4912276;29;20982;-42
2021/11/14 09:41:42;;;;;;;14.63;11.90;;;9.70;89.80;;;;;;4911764;29;20460;-43
2021/11/14 09:44:20;;;;;;;13.07;11.20;;;9.70;89.80;;;;;;4914449;29;21018;-43
2021/11/14 09:46:53;;;;;;;14.63;11.50;;;9.80;89.80;;;;;;4912022;29;20449;-43
2021/11/14 09:49:24;;;;;;;13.00;10.87;;;9.80;89.80;;;;;;4898746;29;20805;-42
2021/11/14 09:51:52;;;;;;;14.47;11.27;;;9.90;89.80;;;;;;4911229;29;20456;-42
2021/11/14 09:54:21;;;;;;;13.87;11.20;;;9.90;89.80;;;;;;4913208;29;20473;-42
2021/11/14 09:56:48;;;;;;;14.50;11.50;;;9.90;89.80;;;;;;4897883;29;20507;-42
2021/11/14 09:59:16;;;;;;;17.00;12.43;;;9.90;89.80;;;;;;4912555;29;20467;-42
2021/11/14 10:01:46;;;;;;;14.83;12.27;;;9.90;89.80;;;;;;4912090;29;20465;-43
2021/11/14 10:04:14;;;;;;;14.80;12.17;;;9.90;89.80;;;;;;4911533;29;20580;-42
2021/11/14 10:06:40;;;;;;;12.30;10.37;;;9.90;89.80;;;;;;4913105;29;20516;-42
2021/11/14 10:09:08;;;;;;;13.50;9.93;;;9.90;89.80;;;;;;4896921;29;20459;-42
2021/11/14 10:11:40;;;;;;;13.77;11.43;;;9.90;89.80;;;;;;4911803;29;21039;-42
2021/11/14 10:14:08;;;;;;;12.60;11.00;;;10.00;89.80;;;;;;4897873;29;20769;-42
2021/11/14 10:16:35;;;;;;;13.43;12.00;;;10.00;89.80;;;;;;4912288;29;20461;-42
2021/11/14 10:19:09;;;;;;;13.07;11.70;;;10.00;89.80;;;;;;4913572;29;20469;-42
2021/11/14 10:21:35;;;;;;;14.77;13.00;;;10.00;89.80;;;;;;4911795;29;20468;-42
2021/11/14 10:24:05;;;;;;;18.10;13.80;;;10.00;89.70;;;;;;4912063;29;20488;-42
2021/11/14 10:26:33;;;;;;;14.20;11.33;;;10.00;89.60;;;;;;4911893;29;20460;-42
2021/11/14 10:29:06;;;;;;;12.00;10.70;;;10.10;89.70;;;;;;4912278;29;20835;-42
2021/11/14 10:31:34;;;;;;;15.20;12.20;;;10.10;89.60;;;;;;4897290;29;20461;-42
2021/11/14 10:34:01;;;;;;;11.27;9.93;;;10.20;89.50;;;;;;4908792;29;20460;-42
2021/11/14 10:36:29;;;;;;;15.10;10.33;;;10.20;89.70;;;;;;4912798;29;20839;-42
2021/11/14 10:39:03;;;;;;;12.37;10.73;;;10.20;89.70;;;;;;4911429;29;20461;-42
2021/11/14 10:41:30;;;;;;;10.97;9.77;;;10.20;89.10;;;;;;4911182;29;21157;-42
2021/11/14 10:44:12;;;;;;;13.00;10.30;;;10.30;88.70;;;;;;4910156;29;20496;-42
2021/11/14 10:46:39;;;;;;;12.67;10.33;;;10.30;88.70;;;;;;4910389;29;20801;-42
2021/11/14 10:49:07;;;;;;;12.03;10.73;;;10.30;88.30;;;;;;4895485;29;20480;-42
2021/11/14 10:51:36;;;;;;;12.03;10.43;;;10.30;88.30;;;;;;4891295;29;20500;-42
2021/11/14 10:54:03;;;;;;;10.70;9.67;;;10.30;88.20;;;;;;4909953;29;20517;-42
2021/11/14 10:56:30;;;;;;;12.37;9.90;;;10.40;88.40;;;;;;4912180;29;20508;-43
2021/11/14 10:58:57;;;;;;;10.43;9.27;;;10.40;88.10;;;;;;4910140;29;20456;-42
2021/11/14 11:01:25;;;;;;;12.57;10.40;;;10.40;88.20;;;;;;4910664;29;20457;-42
2021/11/14 11:03:53;;;;;;;10.97;9.60;;;10.40;88.40;;;;;;4898226;29;20496;-43
2021/11/14 11:06:27;;;;;;;12.53;10.17;;;10.40;88.40;;;;;;4911128;29;20503;-43
2021/11/14 11:09:04;;;;;;;10.93;9.50;;;10.50;87.90;;;;;;4911165;29;20500;-43
2021/11/14 11:11:54;;;;;;;15.50;11.40;;;10.50;87.70;;;;;;4911198;29;20463;-43
2021/11/14 11:14:26;;;;;;;10.53;9.43;;;10.50;87.50;;;;;;4911450;29;20547;-43
2021/11/14 11:16:52;;;;;;;13.90;9.80;;;10.50;87.70;;;;;;4912211;29;20874;-43
2021/11/14 11:19:25;;;;;;;12.13;10.93;;;10.50;87.60;;;;;;4894959;29;20460;-43
2021/11/14 11:21:52;;;;;;;12.10;9.60;;;10.60;87.30;;;;;;4911552;29;20467;-43
2021/11/14 11:24:23;;;;;;;13.67;9.93;;;10.60;87.20;;;;;;4894461;29;20495;-43
2021/11/14 11:27:00;;;;;;;13.00;9.47;;;10.60;87.30;;;;;;4895390;29;20541;-43
2021/11/14 11:29:30;;;;;;;12.50;9.50;;;10.60;87.00;;;;;;4910475;29;20471;-43
2021/11/14 11:31:57;;;;;;;11.17;9.97;;;10.60;86.90;;;;;;4910619;29;20549;-43
2021/11/14 11:34:25;;;;;;;11.30;9.83;;;10.60;86.60;;;;;;4911085;29;20453;-43
2021/11/14 11:36:56;;;;;;;13.70;10.23;;;10.60;86.50;;;;;;4910791;29;20460;-43
2021/11/14 11:39:24;;;;;;;11.80;9.70;;;10.70;86.00;;;;;;4911016;29;21059;-43
2021/11/14 11:41:54;;;;;;;12.80;10.20;;;10.60;86.50;;;;;;4910295;29;21010;-43
2021/11/14 11:44:28;;;;;;;10.80;9.50;;;10.60;86.60;;;;;;4911817;29;20492;-43
2021/11/14 11:47:01;;;;;;;14.93;12.90;;;10.60;86.50;;;;;;4911332;29;20461;-43
2021/11/14 11:49:36;;;;;;;13.27;11.00;;;10.60;86.40;;;;;;4910189;29;20465;-43
2021/11/14 11:52:09;;;;;;;12.00;10.40;;;10.60;86.50;;;;;;4910423;29;20548;-43
2021/11/14 11:54:37;;;;;;;12.57;10.77;;;10.60;86.10;;;;;;4911188;29;20555;-43
2021/11/14 11:57:10;;;;;;;13.83;10.60;;;10.60;86.40;;;;;;4892839;29;20901;-43
2021/11/14 11:59:41;;;;;;;13.33;10.20;;;10.60;86.50;;;;;;4907549;29;20977;-43
2021/11/14 12:02:13;;;;;;;13.53;10.93;;;10.60;86.60;;;;;;4911860;29;20488;-43
2021/11/14 12:04:49;;;;;;;12.37;11.07;;;10.70;86.40;;;;;;4908388;29;20481;-43
2021/11/14 12:07:19;;;;;;;15.17;11.10;;;10.70;86.40;;;;;;4910200;29;21059;-42
2021/11/14 12:09:52;;;;;;;18.20;11.63;;;10.70;86.60;;;;;;4911528;29;20479;-43
2021/11/14 12:12:21;;;;;;;13.03;10.77;;;10.70;86.60;;;;;;4909509;29;20449;-43
2021/11/14 12:15:10;;;;;;;11.87;10.50;;;10.80;86.60;;;;;;4911323;29;20547;-42
2021/11/14 12:17:38;;;;;;;15.03;11.90;;;10.80;86.80;;;;;;4911511;29;20990;-42
2021/11/14 12:20:12;;;;;;;15.20;11.37;;;10.80;86.80;;;;;;4911071;29;20463;-43
2021/11/14 12:22:48;;;;;;;13.13;11.30;;;10.80;86.50;;;;;;4910459;29;20468;-43
2021/11/14 12:25:44;;;;;;;13.07;10.87;;;10.90;85.90;;;;;;4910254;29;20495;-43
2021/11/14 12:28:13;;;;;;;13.40;10.60;;;10.90;86.00;;;;;;4899714;29;20471;-43
2021/11/14 12:30:58;;;;;;;14.53;10.97;;;11.00;85.80;;;;;;4910573;29;20452;-43
2021/11/14 12:33:28;;;;;;;14.53;11.10;;;11.00;85.30;;;;;;4910596;29;20559;-43
2021/11/14 12:36:09;;;;;;;12.07;10.27;;;10.90;85.30;;;;;;4910464;29;20465;-43
2021/11/14 12:38:37;;;;;;;12.40;9.90;;;11.00;85.00;;;;;;4894260;29;20460;-43
2021/11/14 12:41:09;;;;;;;16.33;10.40;;;10.90;85.10;;;;;;4907612;29;20457;-43
2021/11/14 12:43:47;;;;;;;13.00;10.03;;;10.90;85.20;;;;;;4906587;29;20836;-43
2021/11/14 12:46:25;;;;;;;15.03;10.67;;;10.90;85.30;;;;;;4896791;29;20468;-42
2021/11/14 12:48:53;;;;;;;13.67;11.37;;;11.00;85.30;;;;;;4898495;29;20936;-42